Time;durP1;ratioP1;P1;durP2;ratioP2;P2;SDS_P1;SDS_P2;PMS_P1;PMS_P2;Temp;Humidity;BMP_temperature;BMP_pressure;BME280_temperature;BME280_humidity;BME280_pressure;Samples;Min_cycle;Max_cycle;Signal;HPM_P1;HPM_P2
2021/08/11 00:02:17;;;;;;;;;;;;;;;22.58;28.99;97843.31;5042316;28;980;-85
2021/08/11 00:04:42;;;;;;;;;;;;;;;22.52;29.31;97847.97;5041375;28;1901;-86
2021/08/11 00:07:08;;;;;;;;;;;;;;;22.62;29.02;97849.66;5043108;28;1105;-86
2021/08/11 00:09:33;;;;;;;;;;;;;;;22.56;29.52;97851.47;5041823;28;784;-86
2021/08/11 00:11:59;;;;;;;;;;;;;;;22.62;29.14;97849.66;5025267;28;1304;-85
2021/08/11 00:14:25;;;;;;;;;;;;;;;22.66;29.38;97850.34;5042043;28;611;-85
2021/08/11 00:16:50;;;;;;;;;;;;;;;22.72;29.22;97842.84;5041647;28;908;-86
2021/08/11 00:19:47;;;;;;;;;;;;;;;22.67;29.64;97846.25;5041142;28;1138;-85
2021/08/11 00:22:13;;;;;;;;;;;;;;;22.55;29.73;97844.22;5041627;28;718;-85
2021/08/11 00:24:38;;;;;;;;;;;;;;;22.61;29.65;97836.72;5043997;28;1906;-84
2021/08/11 00:27:04;;;;;;;;;;;;;;;22.61;29.69;97831.06;5045968;28;746;-85
2021/08/11 00:29:32;;;;;;;;;;;;;;;22.67;29.73;97828.44;5078157;28;893;-85
2021/08/11 00:31:58;;;;;;;;;;;;;;;22.62;29.96;97826.97;5045347;28;1007;-85
2021/08/11 00:34:23;;;;;;;;;;;;;;;22.61;29.97;97842.41;5043796;28;824;-84
2021/08/11 00:36:49;;;;;;;;;;;;;;;22.57;29.99;97841.72;5044754;28;1270;-84
2021/08/11 00:39:22;;;;;;;;;;;;;;;22.58;30.22;97844.09;5028144;28;896;-84
2021/08/11 00:41:48;;;;;;;;;;;;;;;22.65;30.16;97848.75;5028042;28;1246;-84
2021/08/11 00:44:17;;;;;;;;;;;;;;;22.61;29.93;97843.19;5028108;28;1963;-84
2021/08/11 00:46:45;;;;;;;;;;;;;;;22.67;30.07;97843.41;5044369;28;1157;-84
2021/08/11 00:49:12;;;;;;;;;;;;;;;22.62;30.23;97835.47;5027310;28;1250;-84
2021/08/11 00:51:39;;;;;;;;;;;;;;;22.71;30.13;97835.59;5044711;28;1275;-85
2021/08/11 00:54:05;;;;;;;;;;;;;;;22.66;30.22;97833.31;5044437;28;1289;-85
2021/08/11 00:56:32;;;;;;;;;;;;;;;22.72;29.99;97825.81;5045139;28;1255;-85
2021/08/11 00:58:57;;;;;;;;;;;;;;;22.75;29.77;97819.25;5028379;28;1258;-84
2021/08/11 01:01:23;;;;;;;;;;;;;;;22.55;30.09;97822.34;5044534;28;1333;-86
2021/08/11 01:03:49;;;;;;;;;;;;;;;22.65;30.17;97823.22;5028404;28;1906;-86
2021/08/11 01:06:15;;;;;;;;;;;;;;;22.66;30.18;97827.66;5045868;28;1253;-86
2021/08/11 01:08:40;;;;;;;;;;;;;;;22.65;30.07;97831.75;5011488;28;1213;-85
2021/08/11 01:11:06;;;;;;;;;;;;;;;22.75;29.95;97824.91;5045845;28;702;-85
2021/08/11 01:13:37;;;;;;;;;;;;;;;22.59;30.04;97822.22;5029121;28;1300;-85
2021/08/11 01:16:02;;;;;;;;;;;;;;;22.61;30.15;97819.72;5045276;28;866;-86
2021/08/11 01:18:32;;;;;;;;;;;;;;;22.54;30.25;97822.81;5028419;28;1324;-85
2021/08/11 01:21:01;;;;;;;;;;;;;;;22.62;30.05;97826.97;5029544;28;1183;-86
2021/08/11 01:23:29;;;;;;;;;;;;;;;22.68;30.27;97827.97;5044614;28;1942;-86
2021/08/11 01:25:57;;;;;;;;;;;;;;;22.64;30.36;97835.84;5029255;28;1242;-86
2021/08/11 01:28:33;;;;;;;;;;;;;;;22.66;30.40;97824.81;5044464;28;1310;-86
2021/08/11 01:31:07;;;;;;;;;;;;;;;22.83;30.12;97831.13;5078483;28;1272;-85
2021/08/11 01:33:52;;;;;;;;;;;;;;;22.69;30.28;97838.09;5044135;28;1308;-86
2021/08/11 01:36:40;;;;;;;;;;;;;;;22.59;30.29;97825.84;5044038;28;1272;-85
2021/08/11 01:39:07;;;;;;;;;;;;;;;22.61;30.18;97831.06;5044504;28;1349;-86
2021/08/11 01:41:35;;;;;;;;;;;;;;;22.69;30.31;97823.91;5044639;28;1331;-85
2021/08/11 01:44:01;;;;;;;;;;;;;;;22.66;30.06;97821.19;5044315;28;1961;-86
2021/08/11 01:46:26;;;;;;;;;;;;;;;22.64;30.37;97824.50;5028020;28;1321;-86
2021/08/11 01:48:52;;;;;;;;;;;;;;;22.62;30.17;97826.97;5043863;28;1366;-85
2021/08/11 01:51:18;;;;;;;;;;;;;;;22.74;30.25;97831.84;5028003;28;1274;-85
2021/08/11 01:53:44;;;;;;;;;;;;;;;22.77;30.18;97830.91;5044183;28;1154;-84
2021/08/11 01:56:12;;;;;;;;;;;;;;;22.77;30.01;97833.75;5028756;28;1283;-85
2021/08/11 01:58:44;;;;;;;;;;;;;;;22.69;30.28;97832.41;5028118;28;1321;-85
2021/08/11 02:01:11;;;;;;;;;;;;;;;22.70;30.41;97828.34;5027717;28;1362;-85
2021/08/11 02:03:37;;;;;;;;;;;;;;;22.73;30.38;97827.41;5010872;28;1914;-86
2021/08/11 02:06:02;;;;;;;;;;;;;;;22.67;30.43;97829.22;5011947;28;1353;-85
2021/08/11 02:08:29;;;;;;;;;;;;;;;22.70;30.24;97816.19;5027134;28;1480;-85
2021/08/11 02:10:55;;;;;;;;;;;;;;;22.65;30.45;97823.22;5044042;28;1170;-85
2021/08/11 02:13:22;;;;;;;;;;;;;;;22.66;30.13;97821.97;5044152;28;1365;-85
2021/08/11 02:15:48;;;;;;;;;;;;;;;22.64;30.19;97813.16;5028129;28;1321;-85
2021/08/11 02:18:14;;;;;;;;;;;;;;;22.66;30.33;97824.03;5026201;28;1346;-86
2021/08/11 02:20:40;;;;;;;;;;;;;;;22.74;30.09;97831.03;5027837;28;1265;-85
2021/08/11 02:23:06;;;;;;;;;;;;;;;22.66;30.03;97827.66;5027040;28;1269;-86
2021/08/11 02:25:32;;;;;;;;;;;;;;;22.69;29.95;97826.75;5044235;28;1914;-84
2021/08/11 02:28:13;;;;;;;;;;;;;;;22.84;30.05;97827.81;5027239;28;1179;-86
2021/08/11 02:30:40;;;;;;;;;;;;;;;22.74;29.90;97834.69;5044010;28;1275;-85
2021/08/11 02:33:11;;;;;;;;;;;;;;;22.57;30.23;97836.06;5026546;28;1291;-86
2021/08/11 02:35:54;;;;;;;;;;;;;;;22.71;30.10;97841.25;5044149;28;1372;-86
2021/08/11 02:38:31;;;;;;;;;;;;;;;22.66;30.36;97838.22;5043016;28;607;-86
2021/08/11 02:41:02;;;;;;;;;;;;;;;22.64;30.27;97841.50;5028001;28;1301;-85
2021/08/11 02:43:50;;;;;;;;;;;;;;;22.57;30.62;97836.06;5026196;28;1898;-85
2021/08/11 02:46:21;;;;;;;;;;;;;;;22.62;30.20;97844.00;5060656;28;1253;-85
2021/08/11 02:48:59;;;;;;;;;;;;;;;22.63;30.19;97843.53;5025658;28;1149;-86
2021/08/11 02:51:29;;;;;;;;;;;;;;;22.65;30.15;97842.28;5027928;28;1165;-86
2021/08/11 02:53:55;;;;;;;;;;;;;;;22.68;29.99;97844.19;5042929;28;666;-86
2021/08/11 02:56:20;;;;;;;;;;;;;;;22.67;30.19;97846.25;5026972;28;1282;-87
2021/08/11 02:58:46;;;;;;;;;;;;;;;22.69;30.00;97842.94;5026284;28;1163;-86
2021/08/11 03:01:12;;;;;;;;;;;;;;;22.62;30.13;97838.31;5027533;28;1361;-86
2021/08/11 03:03:40;;;;;;;;;;;;;;;22.57;30.11;97836.06;5043281;28;1967;-86
2021/08/11 03:06:05;;;;;;;;;;;;;;;22.55;30.04;97845.03;5028105;28;1143;-86
2021/08/11 03:08:33;;;;;;;;;;;;;;;22.64;30.10;97841.50;5043100;28;1154;-86
2021/08/11 03:10:58;;;;;;;;;;;;;;;22.69;29.75;97843.78;5028254;28;1255;-86
2021/08/11 03:13:25;;;;;;;;;;;;;;;22.62;29.82;97846.81;5027310;28;1302;-86
2021/08/11 03:15:50;;;;;;;;;;;;;;;22.53;29.91;97843.88;5043141;28;1303;-86
2021/08/11 03:18:16;;;;;;;;;;;;;;;22.62;29.75;97844.00;5059825;28;1150;-86
2021/08/11 03:20:42;;;;;;;;;;;;;;;22.65;30.02;97839.47;5042876;28;1167;-86
2021/08/11 03:23:12;;;;;;;;;;;;;;;22.71;29.73;97846.94;5044043;28;1153;-86
2021/08/11 03:25:39;;;;;;;;;;;;;;;22.72;29.90;97844.88;5060462;28;1910;-86
2021/08/11 03:28:05;;;;;;;;;;;;;;;22.62;30.23;97841.94;5043447;28;909;-87
2021/08/11 03:30:32;;;;;;;;;;;;;;;22.66;29.75;97846.72;5028005;28;1433;-86
2021/08/11 03:32:58;;;;;;;;;;;;;;;22.67;29.93;97851.91;5042908;28;1136;-86
2021/08/11 03:35:25;;;;;;;;;;;;;;;22.73;29.80;97847.25;5027608;28;1321;-86
2021/08/11 03:37:52;;;;;;;;;;;;;;;22.78;29.71;97852.34;5043868;28;1031;-87
2021/08/11 03:40:17;;;;;;;;;;;;;;;22.68;29.88;97853.50;5043967;28;1179;-87
2021/08/11 03:42:44;;;;;;;;;;;;;;;22.62;29.81;97867.47;5043541;28;1389;-86
2021/08/11 03:45:10;;;;;;;;;;;;;;;22.56;30.02;97857.16;5026614;28;1918;-86
2021/08/11 03:47:42;;;;;;;;;;;;;;;22.60;30.03;97860.69;5043567;28;1159;-86
2021/08/11 03:50:12;;;;;;;;;;;;;;;22.49;30.33;97857.41;5027396;28;1323;-86
2021/08/11 03:52:38;;;;;;;;;;;;;;;22.55;30.24;97858.41;5044097;28;1297;-86
2021/08/11 03:55:04;;;;;;;;;;;;;;;22.66;30.16;97861.69;5043947;28;1271;-87
2021/08/11 04:00:51;;;;;;;;;;;;;;;22.62;30.11;97856.13;5048449;28;845;-86
2021/08/11 04:03:17;;;;;;;;;;;;;;;22.57;29.89;97859.53;5046388;28;883;-86
2021/08/11 04:05:42;;;;;;;;;;;;;;;22.73;29.70;97854.97;5047841;28;1910;-86
2021/08/11 04:08:08;;;;;;;;;;;;;;;22.65;29.90;97854.44;5047461;28;937;-86
2021/08/11 04:10:33;;;;;;;;;;;;;;;22.64;30.09;97864.19;5048528;28;611;-86
2021/08/11 04:12:58;;;;;;;;;;;;;;;22.73;29.92;97861.44;5046707;28;718;-86
2021/08/11 04:15:24;;;;;;;;;;;;;;;22.67;30.14;97862.47;5047366;28;627;-86
2021/08/11 04:17:49;;;;;;;;;;;;;;;22.57;30.03;97864.41;5046862;28;982;-86
2021/08/11 04:20:15;;;;;;;;;;;;;;;22.73;29.66;97866.31;5046301;28;918;-86
2021/08/11 04:22:40;;;;;;;;;;;;;;;22.60;29.89;97864.31;5063906;28;963;-86
2021/08/11 04:25:06;;;;;;;;;;;;;;;22.64;30.08;97867.03;5079719;28;1973;-86
2021/08/11 04:27:31;;;;;;;;;;;;;;;22.72;29.89;97857.00;5047136;28;746;-86
2021/08/11 04:29:56;;;;;;;;;;;;;;;22.58;30.15;97861.09;5046361;28;1033;-86
2021/08/11 04:32:22;;;;;;;;;;;;;;;22.68;29.77;97862.00;5047123;28;831;-86
2021/08/11 04:34:47;;;;;;;;;;;;;;;22.66;30.21;97850.34;5029606;28;976;-86
2021/08/11 04:37:14;;;;;;;;;;;;;;;22.70;30.10;97851.03;5047080;28;935;-86
2021/08/11 04:39:39;;;;;;;;;;;;;;;22.57;30.15;97853.84;5045791;28;806;-85
2021/08/11 04:42:04;;;;;;;;;;;;;;;22.66;29.99;97843.88;5046560;28;773;-86
2021/08/11 04:44:30;;;;;;;;;;;;;;;22.78;29.91;97841.00;5045318;28;1977;-86
2021/08/11 04:46:55;;;;;;;;;;;;;;;22.65;30.43;97845.91;5046034;28;753;-86
2021/08/11 04:49:21;;;;;;;;;;;;;;;22.61;30.28;97842.41;5045182;28;800;-85
2021/08/11 04:51:46;;;;;;;;;;;;;;;22.71;30.36;97857.47;5045801;28;878;-86
2021/08/11 04:54:11;;;;;;;;;;;;;;;22.77;30.29;97850.78;5045498;28;903;-85
2021/08/11 04:56:37;;;;;;;;;;;;;;;22.73;30.17;97850.09;5045449;28;836;-86
2021/08/11 04:59:02;;;;;;;;;;;;;;;22.71;30.53;97852.59;5045249;28;769;-85
2021/08/11 05:01:28;;;;;;;;;;;;;;;22.76;30.16;97851.22;5045575;28;890;-85
2021/08/11 05:03:53;;;;;;;;;;;;;;;22.66;30.67;97850.34;5028758;28;1902;-86
2021/08/11 05:06:31;;;;;;;;;;;;;;;22.62;30.78;97844.78;5046481;28;1041;-86
2021/08/11 05:08:57;;;;;;;;;;;;;;;22.59;30.79;97861.94;5045315;28;927;-85
2021/08/11 05:11:22;;;;;;;;;;;;;;;22.66;30.58;97853.19;5045303;28;501;-86
2021/08/11 05:13:48;;;;;;;;;;;;;;;22.71;30.38;97854.66;5046119;28;727;-87
2021/08/11 05:16:13;;;;;;;;;;;;;;;22.66;30.61;97856.00;5046650;28;762;-86
2021/08/11 05:18:38;;;;;;;;;;;;;;;22.70;30.39;97853.84;5045056;28;1043;-86
2021/08/11 05:21:04;;;;;;;;;;;;;;;22.69;30.73;97859.97;5045666;28;1048;-86
2021/08/11 05:23:29;;;;;;;;;;;;;;;22.67;30.71;97860.44;5044588;28;1906;-86
2021/08/11 05:25:54;;;;;;;;;;;;;;;22.73;30.72;97860.66;5046150;28;853;-86
2021/08/11 05:28:20;;;;;;;;;;;;;;;22.80;30.50;97872.56;5045522;28;806;-86
2021/08/11 05:30:45;;;;;;;;;;;;;;;22.78;30.36;97866.53;5045718;28;829;-85
2021/08/11 05:33:10;;;;;;;;;;;;;;;22.78;30.77;97866.53;5061698;28;714;-85
2021/08/11 05:35:36;;;;;;;;;;;;;;;22.84;30.18;97873.22;5045403;28;1008;-85
2021/08/11 05:38:04;;;;;;;;;;;;;;;22.67;30.49;97874.59;5045246;28;861;-86
2021/08/11 05:40:30;;;;;;;;;;;;;;;22.73;30.62;97867.09;5045649;28;846;-86
2021/08/11 05:42:55;;;;;;;;;;;;;;;22.69;30.52;97869.28;5045165;28;921;-86
2021/08/11 05:45:20;;;;;;;;;;;;;;;22.70;30.95;97870.09;5045543;28;1902;-86
2021/08/11 05:47:46;;;;;;;;;;;;;;;22.75;30.73;97870.31;5045408;28;1067;-86
2021/08/11 05:50:11;;;;;;;;;;;;;;;22.75;30.52;97870.31;5044348;28;980;-86
2021/08/11 05:52:37;;;;;;;;;;;;;;;22.77;30.38;97870.63;5045160;28;829;-86
2021/08/11 05:55:02;;;;;;;;;;;;;;;22.78;30.74;97869.38;5044860;28;972;-86
2021/08/11 05:57:28;;;;;;;;;;;;;;;22.78;30.69;97868.56;5045661;28;540;-86
2021/08/11 05:59:54;;;;;;;;;;;;;;;22.72;30.92;97868.38;5044479;28;896;-86
2021/08/11 06:02:20;;;;;;;;;;;;;;;22.75;30.89;97864.63;5044519;28;923;-85
2021/08/11 06:05:00;;;;;;;;;;;;;;;22.73;30.95;97867.09;5029114;28;1977;-86
2021/08/11 06:07:26;;;;;;;;;;;;;;;22.82;30.88;97864.38;5043335;28;1182;-86
2021/08/11 06:09:51;;;;;;;;;;;;;;;22.70;30.97;97867.25;5043429;28;599;-85
2021/08/11 06:12:17;;;;;;;;;;;;;;;22.65;30.83;97877.13;5045505;28;750;-86
2021/08/11 06:14:42;;;;;;;;;;;;;;;22.76;30.92;97873.94;5027024;28;1164;-86
2021/08/11 06:17:08;;;;;;;;;;;;;;;22.80;30.68;97880.28;5043972;28;1197;-86
2021/08/11 06:19:33;;;;;;;;;;;;;;;22.83;30.50;97876.50;5027202;28;1105;-86
2021/08/11 06:21:58;;;;;;;;;;;;;;;22.84;30.82;97873.22;5027408;28;873;-86
2021/08/11 06:24:24;;;;;;;;;;;;;;;22.83;30.78;97877.31;5027074;28;1906;-86
2021/08/11 06:26:50;;;;;;;;;;;;;;;22.79;30.96;97882.28;5027527;28;637;-85
2021/08/11 06:29:17;;;;;;;;;;;;;;;22.78;30.82;97880.72;5042619;28;957;-84
2021/08/11 06:31:43;;;;;;;;;;;;;;;22.84;30.54;97878.88;5027335;28;1190;-86
2021/08/11 06:34:08;;;;;;;;;;;;;;;22.66;30.76;97887.22;5044080;28;918;-85
2021/08/11 06:36:35;;;;;;;;;;;;;;;22.71;30.84;97880.97;5011305;28;1203;-86
2021/08/11 06:39:00;;;;;;;;;;;;;;;22.74;30.69;97891.41;5042520;28;843;-86
2021/08/11 06:41:25;;;;;;;;;;;;;;;22.74;30.96;97884.91;5043191;28;932;-86
2021/08/11 06:43:59;;;;;;;;;;;;;;;22.73;30.77;97884.13;5028164;28;2033;-84
2021/08/11 06:46:25;;;;;;;;;;;;;;;22.70;30.94;97890.72;5010587;28;1191;-85
2021/08/11 06:48:53;;;;;;;;;;;;;;;22.66;31.03;97895.72;5027195;28;1146;-86
2021/08/11 06:51:18;;;;;;;;;;;;;;;22.75;30.70;97892.19;5027709;28;841;-86
2021/08/11 06:53:44;;;;;;;;;;;;;;;22.75;30.93;97900.72;5026799;28;1327;-86
2021/08/11 06:56:10;;;;;;;;;;;;;;;22.83;30.74;97902.03;5027566;28;913;-86
2021/08/11 06:58:36;;;;;;;;;;;;;;;22.74;30.92;97902.75;5027134;28;790;-86
2021/08/11 07:01:01;;;;;;;;;;;;;;;22.90;30.44;97892.53;5043458;28;890;-86
2021/08/11 07:03:27;;;;;;;;;;;;;;;22.90;30.62;97898.19;5009775;28;1898;-85
2021/08/11 07:05:52;;;;;;;;;;;;;;;22.75;31.04;97898.66;5027762;28;1203;-86
2021/08/11 07:08:20;;;;;;;;;;;;;;;22.77;30.92;97906.72;5026314;28;755;-85
2021/08/11 07:10:45;;;;;;;;;;;;;;;22.84;30.99;97892.28;5027570;28;816;-86
2021/08/11 07:13:11;;;;;;;;;;;;;;;22.77;30.77;97895.38;5010395;28;1166;-86
2021/08/11 07:15:36;;;;;;;;;;;;;;;23.02;30.59;97901.03;5010774;28;1225;-86
2021/08/11 07:18:02;;;;;;;;;;;;;;;22.92;30.51;97895.72;5042618;28;1105;-86
2021/08/11 07:20:28;;;;;;;;;;;;;;;22.98;30.44;97893.88;5026529;28;863;-87
2021/08/11 07:22:58;;;;;;;;;;;;;;;22.88;30.61;97896.63;5009963;28;1149;-87
2021/08/11 07:25:23;;;;;;;;;;;;;;;22.79;30.77;97899.31;5026678;28;1910;-86
2021/08/11 07:28:04;;;;;;;;;;;;;;;22.78;30.81;97899.78;5025743;28;949;-86
2021/08/11 07:30:29;;;;;;;;;;;;;;;22.77;30.97;97896.16;5026380;28;1206;-86
2021/08/11 07:32:55;;;;;;;;;;;;;;;22.77;30.82;97890.47;5026199;28;1109;-85
2021/08/11 07:35:21;;;;;;;;;;;;;;;22.79;31.15;97893.66;5026292;28;1375;-85
2021/08/11 07:37:47;;;;;;;;;;;;;;;22.85;30.74;97888.22;5026636;28;877;-86
2021/08/11 07:40:13;;;;;;;;;;;;;;;22.85;30.86;97894.69;5026307;28;761;-86
2021/08/11 07:42:40;;;;;;;;;;;;;;;23.02;30.78;97888.88;5026081;28;834;-86
2021/08/11 07:45:05;;;;;;;;;;;;;;;23.03;30.67;97893.31;5042562;28;1906;-86
2021/08/11 07:47:31;;;;;;;;;;;;;;;22.96;30.69;97896.41;5026123;28;1283;-85
2021/08/11 07:49:56;;;;;;;;;;;;;;;22.86;30.99;97904.78;5026641;28;1351;-86
2021/08/11 07:52:22;;;;;;;;;;;;;;;22.91;30.73;97888.47;5026565;28;1161;-86
2021/08/11 07:54:47;;;;;;;;;;;;;;;22.97;30.88;97895.94;5042565;28;1274;-86
2021/08/11 07:57:13;;;;;;;;;;;;;;;22.90;30.83;97886.84;5026071;28;813;-86
2021/08/11 07:59:38;;;;;;;;;;;;;;;22.80;31.00;97895.25;5008660;28;1147;-86
2021/08/11 08:02:08;;;;;;;;;;;;;;;22.84;31.03;97889.44;5041796;28;909;-86
2021/08/11 08:04:33;;;;;;;;;;;;;;;22.88;31.14;97896.63;5042164;28;1898;-86
2021/08/11 08:06:59;;;;;;;;;;;;;;;23.01;30.63;97890.94;5042687;28;667;-85
2021/08/11 08:09:24;;;;;;;;;;;;;;;23.03;30.62;97896.16;5009175;28;1196;-86
2021/08/11 08:11:50;;;;;;;;;;;;;;;22.97;30.86;97886.63;5026331;28;1271;-86
2021/08/11 08:14:15;;;;;;;;;;;;;;;22.92;31.12;97884.38;5041711;28;999;-85
2021/08/11 08:16:41;;;;;;;;;;;;;;;22.82;31.08;97881.41;5024895;28;927;-84
2021/08/11 08:19:06;;;;;;;;;;;;;;;22.86;30.99;97865.06;5025487;28;1279;-86
2021/08/11 08:21:32;;;;;;;;;;;;;;;22.91;31.12;97885.63;5026514;28;838;-86
2021/08/11 08:23:57;;;;;;;;;;;;;;;23.00;31.02;97880.84;5024911;28;1906;-86
2021/08/11 08:26:22;;;;;;;;;;;;;;;23.12;30.70;97876.38;5025933;28;1189;-86
2021/08/11 08:28:49;;;;;;;;;;;;;;;22.92;30.84;97878.69;5041281;28;928;-86
2021/08/11 08:31:15;;;;;;;;;;;;;;;22.95;31.08;97872.09;5008860;28;1225;-84
2021/08/11 08:33:40;;;;;;;;;;;;;;;22.94;31.04;97867.66;5024470;28;894;-86
2021/08/11 08:36:06;;;;;;;;;;;;;;;22.93;31.11;97868.94;5025644;28;863;-85
2021/08/11 08:38:31;;;;;;;;;;;;;;;22.61;31.28;97871.56;5025759;28;1313;-86
2021/08/11 08:40:57;;;;;;;;;;;;;;;22.99;30.86;97867.09;5042796;28;666;-86
2021/08/11 08:43:22;;;;;;;;;;;;;;;22.96;30.82;97862.34;5040746;28;1215;-85
2021/08/11 08:45:48;;;;;;;;;;;;;;;22.85;31.09;97857.81;5044501;28;1971;-86
2021/08/11 08:48:13;;;;;;;;;;;;;;;23.09;30.50;97865.94;5028887;28;903;-85
2021/08/11 08:50:39;;;;;;;;;;;;;;;23.05;30.68;97860.41;5046116;28;801;-86
2021/08/11 08:53:04;;;;;;;;;;;;;;;22.99;31.03;97856.53;5029389;28;1266;-86
2021/08/11 08:55:31;;;;;;;;;;;;;;;23.06;30.99;97849.84;5045533;28;853;-86
2021/08/11 08:57:56;;;;;;;;;;;;;;;22.97;31.09;97852.56;5045489;28;1154;-86
2021/08/11 09:00:22;;;;;;;;;;;;;;;23.16;30.88;97854.34;5028086;28;966;-86
2021/08/11 09:02:48;;;;;;;;;;;;;;;22.95;30.98;97855.06;5045465;28;920;-86
2021/08/11 09:05:13;;;;;;;;;;;;;;;22.98;31.29;97851.31;5028679;28;1985;-86
2021/08/11 09:07:43;;;;;;;;;;;;;;;22.94;31.36;97853.47;5028707;28;891;-85
2021/08/11 09:10:14;;;;;;;;;;;;;;;23.04;31.22;97855.16;5045329;28;739;-86
2021/08/11 09:12:43;;;;;;;;;;;;;;;22.95;31.35;97849.38;5012049;28;1202;-86
2021/08/11 09:15:09;;;;;;;;;;;;;;;22.94;31.54;97839.28;5045083;28;890;-86
2021/08/11 09:17:38;;;;;;;;;;;;;;;23.02;31.02;97852.78;5029036;28;1173;-86
2021/08/11 09:20:06;;;;;;;;;;;;;;;23.01;30.92;97844.75;5027796;28;938;-85
2021/08/11 09:22:45;;;;;;;;;;;;;;;22.91;30.98;97843.06;5028765;28;770;-86
2021/08/11 09:25:11;;;;;;;;;;;;;;;22.94;30.91;97844.97;5028435;28;1907;-84
2021/08/11 09:27:40;;;;;;;;;;;;;;;22.96;30.95;97843.28;5045158;28;854;-86
2021/08/11 09:30:06;;;;;;;;;;;;;;;23.03;31.01;97845.06;5028034;28;1341;-85
2021/08/11 09:32:32;;;;;;;;;;;;;;;22.99;31.15;97833.03;5045566;28;1296;-86
2021/08/11 09:34:57;;;;;;;;;;;;;;;23.01;30.99;97836.22;5028580;28;1157;-86
2021/08/11 09:37:36;;;;;;;;;;;;;;;22.95;30.97;97833.19;5045187;28;654;-86
2021/08/11 09:40:13;;;;;;;;;;;;;;;22.96;30.70;97833.97;5044800;28;1228;-86
2021/08/11 09:42:39;;;;;;;;;;;;;;;22.99;30.79;97833.03;5011265;28;925;-85
2021/08/11 09:45:05;;;;;;;;;;;;;;;22.95;31.00;97838.03;5010373;28;1911;-83
2021/08/11 09:47:30;;;;;;;;;;;;;;;23.14;30.73;97842.63;5011665;28;817;-85
2021/08/11 09:50:00;;;;;;;;;;;;;;;23.18;30.71;97846.16;5043069;28;917;-86
2021/08/11 09:52:25;;;;;;;;;;;;;;;23.13;30.51;97843.91;5028159;28;1309;-85
2021/08/11 09:54:59;;;;;;;;;;;;;;;23.07;30.80;97840.06;5010375;28;1349;-85
2021/08/11 09:57:28;;;;;;;;;;;;;;;23.05;30.74;97837.69;5042475;28;856;-83
2021/08/11 09:59:56;;;;;;;;;;;;;;;22.98;31.10;97839.97;5025948;28;1275;-86
2021/08/11 10:02:22;;;;;;;;;;;;;;;23.03;30.73;97836.56;5043075;28;935;-83
2021/08/11 10:04:48;;;;;;;;;;;;;;;23.06;30.56;97838.47;5009420;28;1975;-83
2021/08/11 10:07:13;;;;;;;;;;;;;;;23.01;31.01;97841.91;5043441;28;878;-86
2021/08/11 10:09:39;;;;;;;;;;;;;;;22.99;30.82;97833.03;5027600;28;1271;-85
2021/08/11 10:12:04;;;;;;;;;;;;;;;23.13;30.49;97838.22;5027272;28;1223;-85
2021/08/11 10:14:30;;;;;;;;;;;;;;;23.12;30.76;97839.47;5026036;28;1471;-86
2021/08/11 10:16:56;;;;;;;;;;;;;;;23.16;30.63;97843.00;5007061;28;927;-85
2021/08/11 10:19:22;;;;;;;;;;;;;;;22.99;30.96;97850.84;5007242;28;1099;-85
2021/08/11 10:21:49;;;;;;;;;;;;;;;22.95;31.02;97855.88;5024430;28;698;-86
2021/08/11 10:24:15;;;;;;;;;;;;;;;22.95;31.14;97843.72;5006829;28;1888;-85
2021/08/11 10:26:42;;;;;;;;;;;;;;;23.10;30.52;97844.81;5007460;28;1148;-85
2021/08/11 10:29:07;;;;;;;;;;;;;;;23.00;31.03;97846.78;5006393;28;1579;-86
2021/08/11 10:31:33;;;;;;;;;;;;;;;23.01;30.98;97847.56;5023601;28;678;-85
2021/08/11 10:34:00;;;;;;;;;;;;;;;23.05;30.71;97836.88;5023705;28;826;-86
2021/08/11 10:36:26;;;;;;;;;;;;;;;23.06;30.93;97836.44;5023423;28;913;-86
2021/08/11 10:38:51;;;;;;;;;;;;;;;23.11;30.51;97829.38;5022758;28;944;-85
2021/08/11 10:41:17;;;;;;;;;;;;;;;23.16;30.72;97823.13;5022946;28;1360;-84
2021/08/11 10:43:43;;;;;;;;;;;;;;;23.06;31.12;97832.81;5022805;28;1906;-85
2021/08/11 10:46:11;;;;;;;;;;;;;;;23.18;30.82;97822.66;5006333;28;855;-86
2021/08/11 10:48:36;;;;;;;;;;;;;;;23.31;32.66;97814.84;5020169;28;849;-77
2021/08/11 10:51:02;;;;;;;;;;;;;;;23.98;33.58;97816.44;5019799;28;934;-77
2021/08/11 10:53:27;;;;;;;;;;;;;;;24.05;34.77;97819.78;5020061;28;888;-79
2021/08/11 10:55:53;;;;;;;;;;;;;;;23.56;37.02;97813.94;5020621;28;798;-77
2021/08/11 10:58:33;;;;;;;;;;;;;;;24.24;36.37;97809.28;5020828;28;623;-84
2021/08/11 11:00:59;;;;;;;;;;;;;;;24.39;35.31;97812.38;5022235;28;594;-82
2021/08/11 11:04:00;;;;;;;;;;;;;;;24.12;34.81;97821.56;5020912;28;887;-82
2021/08/11 11:06:45;;;;;;;;;;;;;;;23.91;34.31;97806.13;5000563;28;1175;-82
2021/08/11 11:09:20;;;;;;;;;;;;;;;23.94;33.30;97807.28;5017035;28;1178;-82
2021/08/11 11:11:46;;;;;;;;;;;;;;;23.95;32.94;97803.16;5020710;28;971;-82
2021/08/11 11:14:53;;;;;;;;;;;;;;;24.04;32.42;97804.00;5020797;28;655;-82
2021/08/11 11:17:19;;;;;;;;;;;;;;;23.85;32.04;97786.06;5000355;28;1119;-82
2021/08/11 11:20:15;;;;;;;;;;;;;;;23.92;31.79;97787.81;4983842;28;1098;-82
2021/08/11 11:22:41;;;;;;;;;;;;;;;23.38;32.50;97789.06;4998633;28;1226;-82
2021/08/11 11:25:07;;;;;;;;;;;;;;;23.67;31.82;97791.63;5020433;28;1906;-82
2021/08/11 11:27:41;;;;;;;;;;;;;;;23.71;31.38;97792.28;5021651;28;627;-82
2021/08/11 11:30:11;;;;;;;;;;;;;;;23.87;31.07;97788.44;5021362;28;738;-82
2021/08/11 11:32:39;;;;;;;;;;;;;;;23.47;31.73;97791.19;5020831;28;669;-83
2021/08/11 11:35:17;;;;;;;;;;;;;;;23.69;30.93;97794.81;5020794;28;710;-82
2021/08/11 11:37:43;;;;;;;;;;;;;;;23.80;30.81;97795.19;5020497;28;852;-82
2021/08/11 11:40:09;;;;;;;;;;;;;;;23.71;30.82;97789.44;5020064;28;870;-82
2021/08/11 11:42:35;;;;;;;;;;;;;;;23.71;30.62;97795.13;5020473;28;759;-82
2021/08/11 11:45:01;;;;;;;;;;;;;;;23.84;30.21;97795.84;5020213;28;1902;-82
2021/08/11 11:47:37;;;;;;;;;;;;;;;23.34;30.95;97788.41;5021051;28;691;-82
2021/08/11 11:50:21;;;;;;;;;;;;;;;23.61;30.36;97784.94;5021028;28;645;-83
2021/08/11 11:52:47;;;;;;;;;;;;;;;23.66;30.29;97781.53;5021425;28;1021;-82
2021/08/11 11:55:12;;;;;;;;;;;;;;;23.50;30.68;97776.84;5020196;28;987;-82
2021/08/11 11:57:38;;;;;;;;;;;;;;;23.98;29.84;97779.47;5020984;28;702;-82
2021/08/11 12:00:03;;;;;;;;;;;;;;;23.89;29.58;97780.25;5021100;28;652;-82
2021/08/11 12:02:37;;;;;;;;;;;;;;;23.85;30.03;97774.69;5021219;28;543;-82
2021/08/11 12:05:04;;;;;;;;;;;;;;;23.80;30.02;97778.16;5020725;28;1948;-82
2021/08/11 12:07:34;;;;;;;;;;;;;;;23.97;29.44;97778.69;5020653;28;992;-82
2021/08/11 12:10:00;;;;;;;;;;;;;;;23.64;30.14;97772.69;5019950;28;846;-82
2021/08/11 12:12:26;;;;;;;;;;;;;;;23.79;29.96;97770.88;5020557;28;1019;-82
2021/08/11 12:14:51;;;;;;;;;;;;;;;23.74;30.02;97757.28;5020786;28;702;-82
2021/08/11 12:17:29;;;;;;;;;;;;;;;23.64;30.23;97769.84;5019917;28;782;-82
2021/08/11 12:19:56;;;;;;;;;;;;;;;23.65;30.21;97766.53;5021204;28;1003;-82
2021/08/11 12:22:31;;;;;;;;;;;;;;;23.62;30.24;97767.47;5024541;28;830;-82
2021/08/11 12:24:56;;;;;;;;;;;;;;;23.79;30.06;97768.03;5023232;28;1982;-83
2021/08/11 12:27:22;;;;;;;;;;;;;;;23.71;29.74;97761.03;5024879;28;881;-82
2021/08/11 12:29:47;;;;;;;;;;;;;;;23.74;29.75;97750.81;5024558;28;703;-83
2021/08/11 12:32:13;;;;;;;;;;;;;;;23.78;29.59;97757.94;5024101;28;727;-82
2021/08/11 12:34:40;;;;;;;;;;;;;;;23.25;30.26;97752.22;5024604;28;706;-82
2021/08/11 12:37:06;;;;;;;;;;;;;;;23.51;30.14;97755.69;5040539;28;868;-83
2021/08/11 12:39:35;;;;;;;;;;;;;;;23.74;29.71;97759.34;5007336;28;1175;-82
2021/08/11 12:42:03;;;;;;;;;;;;;;;23.63;29.86;97746.34;5023815;28;962;-82
2021/08/11 12:44:30;;;;;;;;;;;;;;;23.72;29.48;97748.41;5023464;28;1969;-83
2021/08/11 12:47:01;;;;;;;;;;;;;;;23.38;30.25;97752.94;5023666;28;651;-82
2021/08/11 12:49:27;;;;;;;;;;;;;;;23.68;29.68;97752.69;5023502;28;665;-82
2021/08/11 12:52:08;;;;;;;;;;;;;;;23.71;29.80;97758.22;5024767;28;682;-82
2021/08/11 12:54:50;;;;;;;;;;;;;;;23.56;29.82;97752.25;5039850;28;1172;-83
2021/08/11 12:57:15;;;;;;;;;;;;;;;23.46;30.01;97759.13;5024222;28;902;-82
2021/08/11 12:59:51;;;;;;;;;;;;;;;23.63;29.72;97759.75;5023786;28;1162;-83
2021/08/11 13:02:19;;;;;;;;;;;;;;;23.64;29.87;97756.44;5024364;28;658;-83
2021/08/11 13:04:45;;;;;;;;;;;;;;;23.44;30.05;97755.97;5024230;28;1902;-83
2021/08/11 13:07:10;;;;;;;;;;;;;;;23.62;29.89;97755.28;5023585;28;611;-82
2021/08/11 13:09:35;;;;;;;;;;;;;;;23.86;29.14;97753.53;5023413;28;830;-82